RJSR METAR and TAF | Updated Today

RJSR METAR

Odate Noshiro Airport

Observation time: 8:31 hr. ago

RJSR 061000Z 23004KT 190V270 9999 -SHRA FEW010 SCT020 BKN030 02/00 Q1019

Need help? Read our tutorial on how to read METARs or read the parsed version below.

Odate Noshiro Airport (RJSR) METAR

  • Weather conditions on Mon, 06 Feb 2023 10:00:00 +0000 (8:31 hr. ago):
  • Present conditions: Light showers of rain
  • Clouds: A few at 305 meters; scattered at 610 meters; broken sky at 914 meters
  • Visibility: Greater than 10 km
  • Wind: 230 degrees at 4 knots
  • Temperature: 2 celsius
  • Dew point: 0 celsius
  • Pressure: 1019 millibars
  • Remarks: None


Useful to know...